createdAt,value
2022-09-14T00:01:23.840Z,10.80
2022-09-14T00:03:46.362Z,12.18
2022-09-14T00:06:15.393Z,8.93
2022-09-14T00:08:43.060Z,11.43
2022-09-14T00:11:12.747Z,9.20
2022-09-14T00:13:41.776Z,7.10
2022-09-14T00:16:12.942Z,10.38
2022-09-14T00:18:39.593Z,7.45
2022-09-14T00:21:08.426Z,6.80
2022-09-14T00:23:37.349Z,30.02
2022-09-14T00:26:09.770Z,6.82
2022-09-14T00:28:44.753Z,5.65
2022-09-14T00:31:12.331Z,5.78
2022-09-14T00:33:42.308Z,5.88
2022-09-14T00:36:15.351Z,5.78
2022-09-14T00:38:42.409Z,6.07
2022-09-14T00:41:13.503Z,6.28
2022-09-14T00:46:21.750Z,6.25
2022-09-14T00:48:48.641Z,6.95
2022-09-14T00:51:17.916Z,6.68
2022-09-14T00:53:44.772Z,7.00
2022-09-14T00:56:11.506Z,6.35
2022-09-14T00:58:38.730Z,6.55
2022-09-14T01:01:05.703Z,6.50
2022-09-14T01:03:32.360Z,6.78
2022-09-14T01:06:04.903Z,10.30
2022-09-14T01:09:20.553Z,11.35
2022-09-14T01:12:11.224Z,12.13
2022-09-14T01:14:43.000Z,10.00
2022-09-14T01:17:27.158Z,9.57
2022-09-14T01:20:22.472Z,8.07
2022-09-14T01:23:03.885Z,9.40
2022-09-14T01:28:23.708Z,9.07
2022-09-14T01:30:52.900Z,8.70
2022-09-14T01:33:30.537Z,7.68
2022-09-14T01:36:01.258Z,7.90
2022-09-14T01:38:33.937Z,7.68
2022-09-14T01:41:05.205Z,10.02
2022-09-14T01:43:37.028Z,7.72
2022-09-14T01:46:10.319Z,8.20
2022-09-14T01:48:43.063Z,7.95
2022-09-14T01:51:16.202Z,8.50
2022-09-14T01:53:50.367Z,8.80
2022-09-14T01:56:24.864Z,7.22
2022-09-14T01:58:57.213Z,7.70
2022-09-14T02:01:54.162Z,7.72
2022-09-14T02:04:34.607Z,7.55
2022-09-14T02:07:01.278Z,7.82
2022-09-14T02:09:28.418Z,8.65
2022-09-14T02:12:00.511Z,9.50
2022-09-14T02:14:27.310Z,8.73
2022-09-14T02:16:54.062Z,8.80
2022-09-14T02:19:23.810Z,8.85
2022-09-14T02:21:50.681Z,9.52
2022-09-14T02:24:18.076Z,9.45
2022-09-14T02:26:47.209Z,8.82
2022-09-14T02:29:13.898Z,8.80
2022-09-14T02:32:08.668Z,9.48
2022-09-14T02:34:56.746Z,10.45
2022-09-14T02:37:34.356Z,11.77
2022-09-14T02:40:08.417Z,11.85
2022-09-14T02:42:55.962Z,12.02
2022-09-14T02:45:36.045Z,10.85
2022-09-14T02:48:11.547Z,11.50
2022-09-14T02:51:01.522Z,11.95
2022-09-14T02:53:47.754Z,12.13
2022-09-14T02:56:16.370Z,10.80
2022-09-14T02:58:44.722Z,11.75
2022-09-14T03:01:17.657Z,11.52
2022-09-14T03:03:44.402Z,10.63
2022-09-14T03:06:10.973Z,10.80
2022-09-14T03:08:37.652Z,10.95
2022-09-14T03:11:05.602Z,10.57
2022-09-14T03:13:34.547Z,10.82
2022-09-14T03:16:06.396Z,11.80
2022-09-14T03:18:34.750Z,11.15
2022-09-14T03:21:05.064Z,10.98
2022-09-14T03:23:39.184Z,11.80
2022-09-14T03:26:10.539Z,11.43
2022-09-14T03:28:37.349Z,10.80
2022-09-14T03:31:06.417Z,12.02
2022-09-14T03:33:33.269Z,11.15
2022-09-14T03:36:00.406Z,12.70
2022-09-14T03:38:30.081Z,12.55
2022-09-14T03:40:59.787Z,12.75
2022-09-14T03:43:26.733Z,12.02
2022-09-14T03:45:53.284Z,11.95
2022-09-14T03:48:19.852Z,11.68
2022-09-14T03:50:46.454Z,12.48
2022-09-14T03:53:13.018Z,12.27
2022-09-14T03:55:40.779Z,12.73
2022-09-14T03:58:07.318Z,12.15
2022-09-14T04:00:33.861Z,12.20
2022-09-14T04:03:00.597Z,12.75
2022-09-14T04:05:27.207Z,12.57
2022-09-14T04:07:53.768Z,12.05
2022-09-14T04:10:20.344Z,12.40
2022-09-14T04:12:46.960Z,13.82
2022-09-14T04:15:13.506Z,13.52
2022-09-14T04:17:40.649Z,12.93
2022-09-14T04:20:08.123Z,13.13
2022-09-14T04:22:34.717Z,13.50
2022-09-14T04:25:01.264Z,13.80
2022-09-14T04:27:27.858Z,14.23
2022-09-14T04:29:54.383Z,14.07
2022-09-14T04:32:20.938Z,13.32
2022-09-14T04:34:49.270Z,13.68
2022-09-14T04:37:15.831Z,14.00
2022-09-14T04:39:42.539Z,14.52
2022-09-14T04:42:09.243Z,13.38
2022-09-14T04:44:35.814Z,13.43
2022-09-14T04:47:02.437Z,12.20
2022-09-14T04:49:28.989Z,11.60
2022-09-14T04:51:55.574Z,12.27
2022-09-14T04:54:22.158Z,12.85
2022-09-14T04:56:48.825Z,12.63
2022-09-14T04:59:15.962Z,13.02
2022-09-14T05:01:45.119Z,12.82
2022-09-14T05:04:12.298Z,13.63
2022-09-14T05:06:41.164Z,12.98
2022-09-14T05:09:13.473Z,13.27
2022-09-14T05:11:40.735Z,13.00
2022-09-14T05:14:07.564Z,12.43
2022-09-14T05:16:36.963Z,12.35
2022-09-14T05:19:09.425Z,12.65
2022-09-14T05:21:37.725Z,11.75
2022-09-14T05:24:08.188Z,12.07
2022-09-14T05:26:35.354Z,12.60
2022-09-14T05:29:02.516Z,11.35
2022-09-14T05:31:31.076Z,11.07
2022-09-14T05:33:58.238Z,11.95
2022-09-14T05:36:25.680Z,10.23
2022-09-14T05:38:52.995Z,9.20
2022-09-14T05:41:19.741Z,8.02
2022-09-14T05:43:46.470Z,6.72
2022-09-14T05:46:16.242Z,7.20
2022-09-14T05:48:43.237Z,6.65
2022-09-14T05:51:13.948Z,6.30
2022-09-14T05:53:40.890Z,6.00
2022-09-14T05:56:10.413Z,6.22
2022-09-14T05:58:38.385Z,6.18
2022-09-14T06:01:09.039Z,5.90
2022-09-14T06:03:36.005Z,5.43
2022-09-14T06:06:03.786Z,5.70
2022-09-14T06:08:30.430Z,5.32
2022-09-14T06:10:57.265Z,4.93
2022-09-14T06:13:24.206Z,4.80
2022-09-14T06:15:50.768Z,5.38
2022-09-14T06:18:17.291Z,5.28
2022-09-14T06:20:51.582Z,4.93
2022-09-14T06:23:18.438Z,4.70
2022-09-14T06:25:45.064Z,4.75
2022-09-14T06:28:11.607Z,5.70
2022-09-14T06:30:38.186Z,6.00
2022-09-14T06:33:05.565Z,5.40
2022-09-14T06:35:38.730Z,5.72
2022-09-14T06:38:05.361Z,6.40
2022-09-14T06:40:32.113Z,6.20
2022-09-14T06:43:02.231Z,5.10
2022-09-14T06:45:32.664Z,5.07
2022-09-14T06:47:59.236Z,5.45
2022-09-14T06:50:25.887Z,5.45
2022-09-14T06:52:52.507Z,4.97
2022-09-14T06:55:19.108Z,5.00
2022-09-14T06:57:47.707Z,4.97
2022-09-14T07:00:14.924Z,4.82
2022-09-14T07:02:41.540Z,4.57
2022-09-14T07:05:08.588Z,4.57
2022-09-14T07:07:35.131Z,4.55
2022-09-14T07:10:01.687Z,4.55
2022-09-14T07:12:28.342Z,3.40
2022-09-14T07:14:54.886Z,3.95
2022-09-14T07:17:21.406Z,3.88
2022-09-14T07:19:47.955Z,3.63
2022-09-14T07:22:14.522Z,3.75
2022-09-14T07:24:41.072Z,3.55
2022-09-14T07:27:07.639Z,3.45
2022-09-14T07:29:34.207Z,4.05
2022-09-14T07:32:00.844Z,3.47
2022-09-14T07:34:27.383Z,3.80
2022-09-14T07:36:54.181Z,3.67
2022-09-14T07:39:20.760Z,3.90
2022-09-14T07:41:47.362Z,3.72
2022-09-14T07:44:16.293Z,3.97
2022-09-14T07:46:44.554Z,3.30
2022-09-14T07:49:12.044Z,3.67
2022-09-14T07:51:39.003Z,3.00
2022-09-14T07:54:07.501Z,3.83
2022-09-14T07:56:35.072Z,3.55
2022-09-14T07:59:30.868Z,4.13
2022-09-14T08:01:50.101Z,3.75
2022-09-14T08:04:16.980Z,3.00
2022-09-14T08:06:43.539Z,3.35
2022-09-14T08:09:10.074Z,3.58
2022-09-14T08:11:38.179Z,3.33
2022-09-14T08:14:09.932Z,3.60
2022-09-14T08:16:38.689Z,3.83
2022-09-14T08:19:07.489Z,3.22
2022-09-14T08:21:35.575Z,3.15
2022-09-14T08:24:04.287Z,2.85
2022-09-14T08:26:31.424Z,2.75
2022-09-14T08:29:00.525Z,3.10
2022-09-14T08:31:28.309Z,3.42
2022-09-14T08:33:56.347Z,3.63
2022-09-14T08:36:23.963Z,2.97
2022-09-14T08:38:50.619Z,2.90
2022-09-14T08:41:29.266Z,3.22
2022-09-14T08:44:02.360Z,3.05
2022-09-14T08:46:34.569Z,2.40
2022-09-14T08:49:05.289Z,2.75
2022-09-14T08:51:31.955Z,2.78
2022-09-14T08:54:01.837Z,2.80
2022-09-14T08:56:39.967Z,2.83
2022-09-14T08:59:39.956Z,3.15
2022-09-14T09:02:33.177Z,2.70
2022-09-14T09:05:27.572Z,2.78
2022-09-14T09:08:18.058Z,2.58
2022-09-14T09:10:46.664Z,3.00
2022-09-14T09:13:21.727Z,2.60
2022-09-14T09:15:51.506Z,3.10
2022-09-14T09:18:34.640Z,2.33
2022-09-14T09:21:13.686Z,2.80
2022-09-14T09:23:41.226Z,2.50
2022-09-14T09:26:30.954Z,2.63
2022-09-14T09:29:00.305Z,2.38
2022-09-14T09:31:39.599Z,2.97
2022-09-14T09:34:30.083Z,2.92
2022-09-14T09:37:16.087Z,2.00
2022-09-14T09:39:43.927Z,2.67
2022-09-14T09:42:23.969Z,2.45
2022-09-14T09:45:03.251Z,2.25
2022-09-14T09:47:35.584Z,2.28
2022-09-14T09:50:16.079Z,2.60
2022-09-14T09:52:54.549Z,2.08
2022-09-14T09:55:22.958Z,2.17
2022-09-14T09:57:49.647Z,2.50
2022-09-14T10:00:27.917Z,2.20
2022-09-14T10:02:55.769Z,2.55
2022-09-14T10:05:34.273Z,1.88
2022-09-14T10:08:02.399Z,2.20
2022-09-14T10:10:35.064Z,2.35
2022-09-14T10:13:04.510Z,2.50
2022-09-14T10:15:33.659Z,2.30
2022-09-14T10:18:16.765Z,2.33
2022-09-14T10:20:51.687Z,2.03
2022-09-14T10:23:18.236Z,2.25
2022-09-14T10:26:10.452Z,2.85
2022-09-14T10:28:38.136Z,2.20
2022-09-14T10:31:08.643Z,2.20
2022-09-14T10:33:35.555Z,2.72
2022-09-14T10:36:29.719Z,2.05
2022-09-14T10:39:00.638Z,2.20
2022-09-14T10:49:09.089Z,2.20
2022-09-14T10:51:47.032Z,2.92
2022-09-14T10:54:50.822Z,2.88
2022-09-14T10:57:52.994Z,2.50
2022-09-14T11:00:20.658Z,2.72
2022-09-14T11:03:05.410Z,2.55
2022-09-14T11:06:04.808Z,2.97
2022-09-14T11:08:46.377Z,2.28
2022-09-14T11:11:22.906Z,2.88
2022-09-14T11:14:24.178Z,2.50
2022-09-14T11:17:05.976Z,2.80
2022-09-14T11:19:41.763Z,2.17
2022-09-14T11:22:30.206Z,2.45
2022-09-14T11:25:03.485Z,2.42
2022-09-14T11:27:36.797Z,2.60
2022-09-14T11:30:11.469Z,2.35
2022-09-14T11:32:45.337Z,2.33
2022-09-14T11:35:19.213Z,2.67
2022-09-14T11:37:55.193Z,2.63
2022-09-14T11:40:31.418Z,2.60
2022-09-14T11:43:05.957Z,2.80
2022-09-14T11:45:41.454Z,2.55
2022-09-14T11:48:41.431Z,2.40
2022-09-14T11:51:11.461Z,2.30
2022-09-14T11:53:40.671Z,2.50
2022-09-14T11:56:23.797Z,2.40
2022-09-14T11:58:50.878Z,2.53
2022-09-14T12:01:32.541Z,2.45
2022-09-14T12:04:02.041Z,2.50
2022-09-14T12:06:28.599Z,3.13
2022-09-14T12:08:55.427Z,2.72
2022-09-14T12:11:33.672Z,2.50
2022-09-14T12:14:36.669Z,2.65
2022-09-14T12:17:22.482Z,2.15
2022-09-14T12:19:57.963Z,2.85
2022-09-14T12:22:37.556Z,2.70
2022-09-14T12:25:10.155Z,2.38
2022-09-14T12:27:39.490Z,2.25
2022-09-14T12:30:40.943Z,2.63
2022-09-14T12:33:36.897Z,2.50
2022-09-14T12:36:11.645Z,2.58
2022-09-14T12:38:38.235Z,2.50
2022-09-14T12:41:10.944Z,2.45
2022-09-14T12:43:37.755Z,2.22
2022-09-14T12:46:20.889Z,2.35
2022-09-14T12:48:47.665Z,2.83
2022-09-14T12:51:32.755Z,2.80
2022-09-14T12:54:08.397Z,2.42
2022-09-14T12:56:42.336Z,2.75
2022-09-14T12:59:45.826Z,2.80
2022-09-14T13:02:50.378Z,2.75
2022-09-14T13:05:23.851Z,2.70
2022-09-14T13:07:51.210Z,2.65
2022-09-14T13:10:31.452Z,2.50
2022-09-14T13:13:00.227Z,2.38
2022-09-14T13:15:32.251Z,2.30
2022-09-14T13:18:24.725Z,1.92
2022-09-14T13:20:56.193Z,2.00
2022-09-14T13:23:28.310Z,1.80
2022-09-14T13:25:55.251Z,2.10
2022-09-14T13:28:26.638Z,2.00
2022-09-14T13:30:59.358Z,2.22
2022-09-14T13:33:27.353Z,2.80
2022-09-14T13:36:00.134Z,2.85
2022-09-14T13:38:30.984Z,2.35
2022-09-14T13:41:09.454Z,2.15
2022-09-14T13:43:36.323Z,2.10
2022-09-14T13:46:08.086Z,2.05
2022-09-14T13:48:40.181Z,2.00
2022-09-14T13:51:07.869Z,1.83
2022-09-14T13:53:50.978Z,2.28
2022-09-14T13:56:26.583Z,2.08
2022-09-14T13:59:21.734Z,1.95
2022-09-14T14:01:58.700Z,1.95
2022-09-14T14:04:35.708Z,1.60
2022-09-14T14:07:16.335Z,1.90
2022-09-14T14:09:52.030Z,2.10
2022-09-14T14:12:31.247Z,1.67
2022-09-14T14:15:03.441Z,1.40
2022-09-14T14:17:29.928Z,1.50
2022-09-14T14:19:58.916Z,1.60
2022-09-14T14:22:32.478Z,1.55
2022-09-14T14:25:13.283Z,1.55
2022-09-14T14:27:44.618Z,1.70
2022-09-14T14:30:18.727Z,1.50
2022-09-14T14:32:53.415Z,1.30
2022-09-14T14:35:25.457Z,1.20
2022-09-14T14:37:52.198Z,1.00
2022-09-14T14:40:19.847Z,1.08
2022-09-14T14:42:49.088Z,1.27
2022-09-14T14:45:19.351Z,1.27
2022-09-14T14:47:47.296Z,1.20
2022-09-14T14:50:22.856Z,1.23
2022-09-14T14:52:51.508Z,1.20
2022-09-14T14:55:20.426Z,0.98
2022-09-14T14:57:51.816Z,0.80
2022-09-14T15:00:23.753Z,1.13
2022-09-14T15:02:51.366Z,0.90
2022-09-14T15:05:18.443Z,0.80
2022-09-14T15:07:45.561Z,0.85
2022-09-14T15:10:16.662Z,0.90
2022-09-14T15:12:44.211Z,0.80
2022-09-14T15:15:15.965Z,1.15
2022-09-14T15:17:43.331Z,1.00
2022-09-14T15:20:10.875Z,1.08
2022-09-14T15:22:37.881Z,1.30
2022-09-14T15:25:05.778Z,1.00
2022-09-14T15:27:33.049Z,1.10
2022-09-14T15:29:59.624Z,0.80
2022-09-14T15:32:26.218Z,0.85
2022-09-14T15:34:55.654Z,1.00
2022-09-14T15:37:22.190Z,1.10
2022-09-14T15:39:50.676Z,1.35
2022-09-14T15:42:18.549Z,1.13
2022-09-14T15:44:45.312Z,1.70
2022-09-14T15:47:14.653Z,1.25
2022-09-14T15:49:42.480Z,1.00
2022-09-14T15:52:11.406Z,1.00
2022-09-14T15:54:39.131Z,0.98
2022-09-14T15:57:09.011Z,0.95
2022-09-14T15:59:35.655Z,1.13
2022-09-14T16:02:02.830Z,1.02
2022-09-14T16:04:34.424Z,1.33
2022-09-14T16:07:00.949Z,0.75
2022-09-14T16:09:27.502Z,0.70
2022-09-14T16:11:57.173Z,1.10
2022-09-14T16:14:26.169Z,0.70
2022-09-14T16:16:52.764Z,0.80
2022-09-14T16:19:19.363Z,0.80
2022-09-14T16:21:47.593Z,0.60
2022-09-14T16:26:45.986Z,0.95
2022-09-14T16:29:14.959Z,1.00
2022-09-14T16:31:44.599Z,0.70
2022-09-14T16:34:14.897Z,0.88
2022-09-14T16:36:42.597Z,0.75
2022-09-14T16:39:16.412Z,0.93
2022-09-14T16:41:43.995Z,0.80
2022-09-14T16:44:19.154Z,0.88
2022-09-14T16:46:46.614Z,0.60
2022-09-14T16:49:13.240Z,1.05
2022-09-14T16:51:40.208Z,0.80
2022-09-14T16:54:07.664Z,0.80
2022-09-14T16:56:36.592Z,0.63
2022-09-14T16:59:04.379Z,0.82
2022-09-14T17:01:32.049Z,1.27
2022-09-14T17:04:08.645Z,1.27
2022-09-14T17:06:38.347Z,1.20
2022-09-14T17:09:17.274Z,0.80
2022-09-14T17:11:45.177Z,0.80
2022-09-14T17:14:17.781Z,1.00
2022-09-14T17:16:44.893Z,0.80
2022-09-14T17:19:12.016Z,0.88
2022-09-14T17:21:40.440Z,1.00
2022-09-14T17:24:07.936Z,0.90
2022-09-14T17:26:35.120Z,0.90
2022-09-14T17:29:02.436Z,1.00
2022-09-14T17:31:35.451Z,0.90
2022-09-14T17:34:03.952Z,1.00
2022-09-14T17:36:30.803Z,0.95
2022-09-14T17:38:59.664Z,0.90
2022-09-14T17:41:28.131Z,1.00
2022-09-14T17:43:57.203Z,1.20
2022-09-14T17:46:24.231Z,2.85
2022-09-14T17:48:51.480Z,2.00
2022-09-14T17:51:21.206Z,1.00
2022-09-14T17:53:50.269Z,1.45
2022-09-14T17:56:20.080Z,1.40
2022-09-14T17:58:47.950Z,1.02
2022-09-14T18:01:21.216Z,1.00
2022-09-14T18:03:54.261Z,1.10
2022-09-14T18:06:23.749Z,1.33
2022-09-14T18:08:55.412Z,1.00
2022-09-14T18:11:22.611Z,3.08
2022-09-14T18:13:49.851Z,6.07
2022-09-14T18:16:19.396Z,1.38
2022-09-14T18:18:46.483Z,1.20
2022-09-14T18:21:14.868Z,1.20
2022-09-14T18:23:41.427Z,1.00
2022-09-14T18:26:08.307Z,0.73
2022-09-14T18:28:36.058Z,1.40
2022-09-14T18:31:11.583Z,1.08
2022-09-14T18:33:38.429Z,1.17
2022-09-14T18:36:06.618Z,1.30
2022-09-14T18:38:33.665Z,1.35
2022-09-14T18:41:08.396Z,1.30
2022-09-14T18:43:35.847Z,1.40
2022-09-14T18:46:07.442Z,1.40
2022-09-14T18:48:35.099Z,1.58
2022-09-14T18:51:04.543Z,2.90
2022-09-14T18:53:31.591Z,2.40
2022-09-14T18:56:09.729Z,5.07
2022-09-14T18:58:38.638Z,3.45
2022-09-14T19:01:06.355Z,3.05
2022-09-14T19:03:33.533Z,2.88
2022-09-14T19:06:14.708Z,2.40
2022-09-14T19:08:42.015Z,1.40
2022-09-14T19:11:11.665Z,1.52
2022-09-14T19:13:38.495Z,1.60
2022-09-14T19:16:10.735Z,1.50
2022-09-14T19:18:38.161Z,1.85
2022-09-14T19:21:10.153Z,1.90
2022-09-14T19:23:37.086Z,1.52
2022-09-14T19:26:18.281Z,2.10
2022-09-14T19:31:14.509Z,1.65
2022-09-14T19:33:45.465Z,1.30
2022-09-14T19:41:11.658Z,1.25
2022-09-14T19:43:38.640Z,1.30
2022-09-14T19:46:07.330Z,1.52
2022-09-14T19:48:34.953Z,2.13
2022-09-14T19:51:05.089Z,4.53
2022-09-14T19:53:33.223Z,2.63
2022-09-14T19:56:02.311Z,1.77
2022-09-14T19:58:29.885Z,1.75
2022-09-14T20:00:57.471Z,2.20
2022-09-14T20:03:24.992Z,2.00
2022-09-14T20:06:08.417Z,1.70
2022-09-14T20:08:35.790Z,1.80
2022-09-14T20:11:11.507Z,1.65
2022-09-14T20:13:39.296Z,1.90
2022-09-14T20:16:30.670Z,2.10
2022-09-14T20:21:26.870Z,1.83
2022-09-14T20:24:15.016Z,1.67
2022-09-14T20:26:42.787Z,1.50
2022-09-14T20:29:09.632Z,1.40
2022-09-14T20:31:36.245Z,4.50
2022-09-14T20:34:03.197Z,1.98
2022-09-14T20:36:29.881Z,1.60
2022-09-14T20:38:58.724Z,1.65
2022-09-14T20:41:31.447Z,1.52
2022-09-14T20:43:58.041Z,2.13
2022-09-14T20:46:36.381Z,4.25
2022-09-14T20:49:05.454Z,5.97
2022-09-14T20:51:32.517Z,6.60
2022-09-14T20:53:59.086Z,4.22
2022-09-14T20:56:28.569Z,3.40
2022-09-14T20:58:56.859Z,2.08
2022-09-14T21:01:25.704Z,2.45
2022-09-14T21:03:52.627Z,1.63
2022-09-14T21:06:22.413Z,1.48
2022-09-14T21:08:49.330Z,1.80
2022-09-14T21:11:21.884Z,1.67
2022-09-14T21:13:49.317Z,1.98
2022-09-14T21:16:21.245Z,2.00
2022-09-14T21:18:51.547Z,1.55
2022-09-14T21:21:19.626Z,2.30
2022-09-14T21:23:48.627Z,1.60
2022-09-14T21:26:15.390Z,2.05
2022-09-14T21:28:42.524Z,2.10
2022-09-14T21:31:17.876Z,2.33
2022-09-14T21:33:48.361Z,1.80
2022-09-14T21:36:20.798Z,1.92
2022-09-14T21:38:52.549Z,1.77
2022-09-14T21:41:20.290Z,1.55
2022-09-14T21:43:47.389Z,1.70
2022-09-14T21:46:14.490Z,2.15
2022-09-14T21:48:41.317Z,1.67
2022-09-14T21:51:18.781Z,1.70
2022-09-14T21:53:56.703Z,1.85
2022-09-14T21:56:25.424Z,1.67
2022-09-14T21:58:56.759Z,1.23
2022-09-14T22:01:24.479Z,1.73
2022-09-14T22:03:52.778Z,1.40
2022-09-14T22:06:22.193Z,1.38
2022-09-14T22:08:50.400Z,1.50
2022-09-14T22:11:23.222Z,1.40
2022-09-14T22:13:58.171Z,1.70
2022-09-14T22:16:26.638Z,2.00
2022-09-14T22:18:56.797Z,1.63
2022-09-14T22:21:25.291Z,1.45
2022-09-14T22:23:54.387Z,1.70
2022-09-14T22:26:21.925Z,1.70
2022-09-14T22:28:50.399Z,1.52
2022-09-14T22:31:18.623Z,2.40
2022-09-14T22:33:45.424Z,1.60
2022-09-14T22:36:12.483Z,1.90
2022-09-14T22:38:41.060Z,1.83
2022-09-14T22:41:12.785Z,1.38
2022-09-14T22:43:40.153Z,1.83
2022-09-14T22:46:07.922Z,2.00
2022-09-14T22:48:35.165Z,1.70
2022-09-14T22:51:02.296Z,1.83
2022-09-14T22:53:29.562Z,2.00
2022-09-14T22:55:56.146Z,2.67
2022-09-14T22:58:25.029Z,1.75
2022-09-14T23:00:52.373Z,1.73
2022-09-14T23:03:20.214Z,1.75
2022-09-14T23:05:52.162Z,1.65
2022-09-14T23:08:19.423Z,1.60
2022-09-14T23:10:47.050Z,1.40
2022-09-14T23:13:15.075Z,2.10
2022-09-14T23:15:42.220Z,2.05
2022-09-14T23:18:08.990Z,1.60
2022-09-14T23:20:37.344Z,1.73
2022-09-14T23:23:03.945Z,1.60
2022-09-14T23:25:31.403Z,2.00
2022-09-14T23:27:57.953Z,2.03
2022-09-14T23:30:24.533Z,1.83
2022-09-14T23:32:51.066Z,1.90
2022-09-14T23:35:17.957Z,2.13
2022-09-14T23:37:44.499Z,2.03
2022-09-14T23:40:11.249Z,1.63
2022-09-14T23:42:37.973Z,2.53
2022-09-14T23:45:05.344Z,2.35
2022-09-14T23:47:31.892Z,2.00
2022-09-14T23:49:58.462Z,2.70
2022-09-14T23:52:25.072Z,2.28
2022-09-14T23:54:51.655Z,2.30
2022-09-14T23:57:18.192Z,2.55
2022-09-14T23:59:44.891Z,2.67
